sensor_id;sensor_type;location;lat;lon;timestamp;temperature;humidity
39957;DHT22;48483;44.640;7.494;2023-09-19T00:01:40;19.00;99.90
39957;DHT22;48483;44.640;7.494;2023-09-19T00:04:08;18.90;99.90
39957;DHT22;48483;44.640;7.494;2023-09-19T00:06:36;18.90;99.90
39957;DHT22;48483;44.640;7.494;2023-09-19T00:09:03;18.80;99.90
39957;DHT22;48483;44.640;7.494;2023-09-19T00:11:30;18.80;99.90
39957;DHT22;48483;44.640;7.494;2023-09-19T00:13:57;18.70;99.90
39957;DHT22;48483;44.640;7.494;2023-09-19T00:16:27;18.70;99.90
39957;DHT22;48483;44.640;7.494;2023-09-19T00:18:54;18.70;99.90
39957;DHT22;48483;44.640;7.494;2023-09-19T00:21:22;18.70;99.90
39957;DHT22;48483;44.640;7.494;2023-09-19T00:23:50;18.70;99.90
39957;DHT22;48483;44.640;7.494;2023-09-19T00:26:18;18.70;99.90
39957;DHT22;48483;44.640;7.494;2023-09-19T00:28:48;18.70;99.90
39957;DHT22;48483;44.640;7.494;2023-09-19T00:31:14;18.70;99.90
39957;DHT22;48483;44.640;7.494;2023-09-19T00:33:41;18.70;99.90
39957;DHT22;48483;44.640;7.494;2023-09-19T00:36:09;18.70;99.90
39957;DHT22;48483;44.640;7.494;2023-09-19T00:38:37;18.70;99.90
39957;DHT22;48483;44.640;7.494;2023-09-19T00:41:03;18.60;99.90
39957;DHT22;48483;44.640;7.494;2023-09-19T00:43:30;18.50;99.90
39957;DHT22;48483;44.640;7.494;2023-09-19T00:46:00;18.40;99.90
39957;DHT22;48483;44.640;7.494;2023-09-19T00:48:29;18.30;99.90
39957;DHT22;48483;44.640;7.494;2023-09-19T00:50:59;18.30;99.90
39957;DHT22;48483;44.640;7.494;2023-09-19T00:53:30;18.20;99.90
39957;DHT22;48483;44.640;7.494;2023-09-19T00:55:58;18.20;99.90
39957;DHT22;48483;44.640;7.494;2023-09-19T00:58:25;18.20;99.90
39957;DHT22;48483;44.640;7.494;2023-09-19T01:00:52;18.10;99.90
39957;DHT22;48483;44.640;7.494;2023-09-19T01:03:20;18.10;99.90
39957;DHT22;48483;44.640;7.494;2023-09-19T01:05:47;18.00;99.90
39957;DHT22;48483;44.640;7.494;2023-09-19T01:08:14;18.00;99.90
39957;DHT22;48483;44.640;7.494;2023-09-19T01:10:46;18.00;99.90
39957;DHT22;48483;44.640;7.494;2023-09-19T01:13:25;17.90;99.90
39957;DHT22;48483;44.640;7.494;2023-09-19T01:15:59;17.90;99.90
39957;DHT22;48483;44.640;7.494;2023-09-19T01:18:35;17.90;99.90
39957;DHT22;48483;44.640;7.494;2023-09-19T01:21:13;17.90;99.90
39957;DHT22;48483;44.640;7.494;2023-09-19T01:24:07;17.90;99.90
39957;DHT22;48483;44.640;7.494;2023-09-19T01:29:38;17.80;99.90
39957;DHT22;48483;44.640;7.494;2023-09-19T01:32:08;17.80;99.90
39957;DHT22;48483;44.640;7.494;2023-09-19T01:34:46;17.80;99.90
39957;DHT22;48483;44.640;7.494;2023-09-19T01:37:17;17.90;99.90
39957;DHT22;48483;44.640;7.494;2023-09-19T01:39:46;17.80;99.90
39957;DHT22;48483;44.640;7.494;2023-09-19T01:42:43;17.80;99.90
39957;DHT22;48483;44.640;7.494;2023-09-19T01:45:13;17.80;99.90
39957;DHT22;48483;44.640;7.494;2023-09-19T01:47:48;17.80;99.90
39957;DHT22;48483;44.640;7.494;2023-09-19T01:50:22;17.70;99.90
39957;DHT22;48483;44.640;7.494;2023-09-19T01:52:57;17.70;99.90
39957;DHT22;48483;44.640;7.494;2023-09-19T01:55:28;17.60;99.90
39957;DHT22;48483;44.640;7.494;2023-09-19T01:58:01;17.60;99.90
39957;DHT22;48483;44.640;7.494;2023-09-19T02:00:34;17.60;99.90
39957;DHT22;48483;44.640;7.494;2023-09-19T02:03:04;17.60;99.90
39957;DHT22;48483;44.640;7.494;2023-09-19T02:05:31;17.60;99.90
39957;DHT22;48483;44.640;7.494;2023-09-19T02:07:59;17.60;99.90
39957;DHT22;48483;44.640;7.494;2023-09-19T02:10:27;17.60;99.90
39957;DHT22;48483;44.640;7.494;2023-09-19T02:12:54;17.50;99.90
39957;DHT22;48483;44.640;7.494;2023-09-19T02:15:20;17.50;99.90
39957;DHT22;48483;44.640;7.494;2023-09-19T02:17:48;17.50;99.90
39957;DHT22;48483;44.640;7.494;2023-09-19T02:20:16;17.50;99.90
39957;DHT22;48483;44.640;7.494;2023-09-19T02:22:43;17.50;99.90
39957;DHT22;48483;44.640;7.494;2023-09-19T02:25:10;17.50;99.90
39957;DHT22;48483;44.640;7.494;2023-09-19T02:27:37;17.50;99.90
39957;DHT22;48483;44.640;7.494;2023-09-19T02:30:05;17.50;99.90
39957;DHT22;48483;44.640;7.494;2023-09-19T02:32:32;17.40;99.90
39957;DHT22;48483;44.640;7.494;2023-09-19T02:35:02;17.40;99.90
39957;DHT22;48483;44.640;7.494;2023-09-19T02:37:32;17.40;99.90
39957;DHT22;48483;44.640;7.494;2023-09-19T02:39:59;17.40;99.90
39957;DHT22;48483;44.640;7.494;2023-09-19T02:42:26;17.40;99.90
39957;DHT22;48483;44.640;7.494;2023-09-19T02:44:54;17.40;99.90
39957;DHT22;48483;44.640;7.494;2023-09-19T02:47:21;17.40;99.90
39957;DHT22;48483;44.640;7.494;2023-09-19T02:49:48;17.40;99.90
39957;DHT22;48483;44.640;7.494;2023-09-19T02:52:14;17.40;99.90
39957;DHT22;48483;44.640;7.494;2023-09-19T02:54:43;17.40;99.90
39957;DHT22;48483;44.640;7.494;2023-09-19T02:57:11;17.40;99.90
39957;DHT22;48483;44.640;7.494;2023-09-19T02:59:40;17.40;99.90
39957;DHT22;48483;44.640;7.494;2023-09-19T03:02:09;17.20;99.90
39957;DHT22;48483;44.640;7.494;2023-09-19T03:04:36;17.30;99.90
39957;DHT22;48483;44.640;7.494;2023-09-19T03:07:03;17.20;99.90
39957;DHT22;48483;44.640;7.494;2023-09-19T03:09:32;17.20;99.90
39957;DHT22;48483;44.640;7.494;2023-09-19T03:12:00;17.30;99.90
39957;DHT22;48483;44.640;7.494;2023-09-19T03:14:28;17.20;99.90
39957;DHT22;48483;44.640;7.494;2023-09-19T03:17:02;17.20;99.90
39957;DHT22;48483;44.640;7.494;2023-09-19T03:19:32;17.20;99.90
39957;DHT22;48483;44.640;7.494;2023-09-19T03:22:00;17.20;99.90
39957;DHT22;48483;44.640;7.494;2023-09-19T03:24:27;17.30;99.90
39957;DHT22;48483;44.640;7.494;2023-09-19T03:26:54;17.30;99.90
39957;DHT22;48483;44.640;7.494;2023-09-19T03:29:22;17.20;99.90
39957;DHT22;48483;44.640;7.494;2023-09-19T03:31:49;17.30;99.90
39957;DHT22;48483;44.640;7.494;2023-09-19T03:34:16;17.30;99.90
39957;DHT22;48483;44.640;7.494;2023-09-19T03:36:44;17.30;99.90
39957;DHT22;48483;44.640;7.494;2023-09-19T03:39:10;17.30;99.90
39957;DHT22;48483;44.640;7.494;2023-09-19T03:41:37;17.30;99.90
39957;DHT22;48483;44.640;7.494;2023-09-19T03:44:05;17.30;99.90
39957;DHT22;48483;44.640;7.494;2023-09-19T03:46:34;17.30;99.90
39957;DHT22;48483;44.640;7.494;2023-09-19T03:49:03;17.30;99.90
39957;DHT22;48483;44.640;7.494;2023-09-19T03:51:29;17.30;99.90
39957;DHT22;48483;44.640;7.494;2023-09-19T03:53:56;17.20;99.90
39957;DHT22;48483;44.640;7.494;2023-09-19T03:56:23;17.10;99.90
39957;DHT22;48483;44.640;7.494;2023-09-19T03:58:49;17.00;99.90
39957;DHT22;48483;44.640;7.494;2023-09-19T04:01:17;17.00;99.90
39957;DHT22;48483;44.640;7.494;2023-09-19T04:03:46;16.90;99.90
39957;DHT22;48483;44.640;7.494;2023-09-19T04:06:14;16.90;99.90
39957;DHT22;48483;44.640;7.494;2023-09-19T04:08:41;16.80;99.90
39957;DHT22;48483;44.640;7.494;2023-09-19T04:11:08;16.80;99.90
39957;DHT22;48483;44.640;7.494;2023-09-19T04:13:34;16.80;99.90
39957;DHT22;48483;44.640;7.494;2023-09-19T04:16:01;16.90;99.90
39957;DHT22;48483;44.640;7.494;2023-09-19T04:18:30;16.90;99.90
39957;DHT22;48483;44.640;7.494;2023-09-19T04:21:02;16.90;99.90
39957;DHT22;48483;44.640;7.494;2023-09-19T04:23:30;16.90;99.90
39957;DHT22;48483;44.640;7.494;2023-09-19T04:25:57;16.90;99.90
39957;DHT22;48483;44.640;7.494;2023-09-19T04:28:24;16.90;99.90
39957;DHT22;48483;44.640;7.494;2023-09-19T04:30:51;16.90;99.90
39957;DHT22;48483;44.640;7.494;2023-09-19T04:33:17;16.90;99.90
39957;DHT22;48483;44.640;7.494;2023-09-19T04:35:44;16.80;99.90
39957;DHT22;48483;44.640;7.494;2023-09-19T04:38:12;16.80;99.90
39957;DHT22;48483;44.640;7.494;2023-09-19T04:40:41;16.80;99.90
39957;DHT22;48483;44.640;7.494;2023-09-19T04:43:08;16.80;99.90
39957;DHT22;48483;44.640;7.494;2023-09-19T04:45:35;16.80;99.90
39957;DHT22;48483;44.640;7.494;2023-09-19T04:48:01;16.80;99.90
39957;DHT22;48483;44.640;7.494;2023-09-19T04:50:29;16.80;99.90
39957;DHT22;48483;44.640;7.494;2023-09-19T04:52:56;16.90;99.90
39957;DHT22;48483;44.640;7.494;2023-09-19T04:55:25;16.90;99.90
39957;DHT22;48483;44.640;7.494;2023-09-19T04:57:52;16.90;99.90
39957;DHT22;48483;44.640;7.494;2023-09-19T05:00:21;16.90;99.90
39957;DHT22;48483;44.640;7.494;2023-09-19T05:02:51;16.90;99.90
39957;DHT22;48483;44.640;7.494;2023-09-19T05:05:18;16.90;99.90
39957;DHT22;48483;44.640;7.494;2023-09-19T05:07:45;16.90;99.90
39957;DHT22;48483;44.640;7.494;2023-09-19T05:10:12;16.90;99.90
39957;DHT22;48483;44.640;7.494;2023-09-19T05:12:41;16.90;99.90
39957;DHT22;48483;44.640;7.494;2023-09-19T05:15:08;16.90;99.90
39957;DHT22;48483;44.640;7.494;2023-09-19T05:17:35;16.90;99.90
39957;DHT22;48483;44.640;7.494;2023-09-19T05:20:02;16.80;99.90
39957;DHT22;48483;44.640;7.494;2023-09-19T05:22:41;16.80;99.90
39957;DHT22;48483;44.640;7.494;2023-09-19T05:25:09;16.80;99.90
39957;DHT22;48483;44.640;7.494;2023-09-19T05:27:36;16.80;99.90
39957;DHT22;48483;44.640;7.494;2023-09-19T05:30:05;16.80;99.90
39957;DHT22;48483;44.640;7.494;2023-09-19T05:32:33;16.80;99.90
39957;DHT22;48483;44.640;7.494;2023-09-19T05:35:00;16.80;99.90
39957;DHT22;48483;44.640;7.494;2023-09-19T05:37:26;16.80;99.90
39957;DHT22;48483;44.640;7.494;2023-09-19T05:39:53;16.90;99.90
39957;DHT22;48483;44.640;7.494;2023-09-19T05:42:24;16.90;99.90
39957;DHT22;48483;44.640;7.494;2023-09-19T05:44:50;16.90;99.90
39957;DHT22;48483;44.640;7.494;2023-09-19T05:47:18;17.00;99.90
39957;DHT22;48483;44.640;7.494;2023-09-19T05:49:45;17.00;99.90
39957;DHT22;48483;44.640;7.494;2023-09-19T05:52:12;17.00;99.90
39957;DHT22;48483;44.640;7.494;2023-09-19T05:54:39;17.00;99.90
39957;DHT22;48483;44.640;7.494;2023-09-19T05:57:05;17.00;99.90
39957;DHT22;48483;44.640;7.494;2023-09-19T05:59:32;16.90;99.90
39957;DHT22;48483;44.640;7.494;2023-09-19T06:01:59;16.90;99.90
39957;DHT22;48483;44.640;7.494;2023-09-19T06:04:28;16.90;99.90
39957;DHT22;48483;44.640;7.494;2023-09-19T06:06:57;16.90;99.90
39957;DHT22;48483;44.640;7.494;2023-09-19T06:09:24;17.00;99.90
39957;DHT22;48483;44.640;7.494;2023-09-19T06:11:51;17.00;99.90
39957;DHT22;48483;44.640;7.494;2023-09-19T06:14:18;17.00;99.90
39957;DHT22;48483;44.640;7.494;2023-09-19T06:16:45;17.10;99.90
39957;DHT22;48483;44.640;7.494;2023-09-19T06:19:13;17.10;99.90
39957;DHT22;48483;44.640;7.494;2023-09-19T06:21:41;17.10;99.90
39957;DHT22;48483;44.640;7.494;2023-09-19T06:24:08;17.20;99.90
39957;DHT22;48483;44.640;7.494;2023-09-19T06:26:35;17.20;99.90
39957;DHT22;48483;44.640;7.494;2023-09-19T06:29:01;17.20;99.90
39957;DHT22;48483;44.640;7.494;2023-09-19T06:31:33;17.20;99.90
39957;DHT22;48483;44.640;7.494;2023-09-19T06:34:00;17.30;99.90
39957;DHT22;48483;44.640;7.494;2023-09-19T06:36:26;17.40;99.90
39957;DHT22;48483;44.640;7.494;2023-09-19T06:38:54;17.40;99.90
39957;DHT22;48483;44.640;7.494;2023-09-19T06:41:21;17.40;99.90
39957;DHT22;48483;44.640;7.494;2023-09-19T06:43:51;17.40;99.90
39957;DHT22;48483;44.640;7.494;2023-09-19T06:46:19;17.50;99.90
39957;DHT22;48483;44.640;7.494;2023-09-19T06:48:47;17.60;99.90
39957;DHT22;48483;44.640;7.494;2023-09-19T06:51:14;17.70;99.90
39957;DHT22;48483;44.640;7.494;2023-09-19T06:53:42;17.80;99.90
39957;DHT22;48483;44.640;7.494;2023-09-19T06:56:10;17.80;99.90
39957;DHT22;48483;44.640;7.494;2023-09-19T06:58:37;17.90;99.90
39957;DHT22;48483;44.640;7.494;2023-09-19T07:01:04;17.90;99.90
39957;DHT22;48483;44.640;7.494;2023-09-19T07:03:31;17.90;99.90
39957;DHT22;48483;44.640;7.494;2023-09-19T07:05:59;17.90;99.90
39957;DHT22;48483;44.640;7.494;2023-09-19T07:08:26;18.00;99.90
39957;DHT22;48483;44.640;7.494;2023-09-19T07:10:53;18.10;99.90
39957;DHT22;48483;44.640;7.494;2023-09-19T07:13:22;18.20;99.90
39957;DHT22;48483;44.640;7.494;2023-09-19T07:15:48;18.20;99.90
39957;DHT22;48483;44.640;7.494;2023-09-19T07:18:16;18.30;99.90
39957;DHT22;48483;44.640;7.494;2023-09-19T07:20:43;18.40;99.90
39957;DHT22;48483;44.640;7.494;2023-09-19T07:23:16;18.30;99.90
39957;DHT22;48483;44.640;7.494;2023-09-19T07:25:45;18.30;99.90
39957;DHT22;48483;44.640;7.494;2023-09-19T07:28:12;18.40;99.90
39957;DHT22;48483;44.640;7.494;2023-09-19T07:30:41;18.50;99.90
39957;DHT22;48483;44.640;7.494;2023-09-19T07:33:10;18.60;99.90
39957;DHT22;48483;44.640;7.494;2023-09-19T07:35:45;18.80;99.90
39957;DHT22;48483;44.640;7.494;2023-09-19T07:38:12;18.80;99.90
39957;DHT22;48483;44.640;7.494;2023-09-19T07:40:39;18.80;99.90
39957;DHT22;48483;44.640;7.494;2023-09-19T07:43:06;18.90;99.90
39957;DHT22;48483;44.640;7.494;2023-09-19T07:45:33;18.90;99.90
39957;DHT22;48483;44.640;7.494;2023-09-19T07:48:01;19.00;99.90
39957;DHT22;48483;44.640;7.494;2023-09-19T07:50:30;19.20;99.90
39957;DHT22;48483;44.640;7.494;2023-09-19T07:52:57;19.30;99.90
39957;DHT22;48483;44.640;7.494;2023-09-19T07:55:23;19.40;99.90
39957;DHT22;48483;44.640;7.494;2023-09-19T07:57:52;19.60;99.90
39957;DHT22;48483;44.640;7.494;2023-09-19T08:00:19;19.80;99.90
39957;DHT22;48483;44.640;7.494;2023-09-19T08:02:46;19.70;99.90
39957;DHT22;48483;44.640;7.494;2023-09-19T08:05:15;19.70;99.90
39957;DHT22;48483;44.640;7.494;2023-09-19T08:07:43;19.70;99.90
39957;DHT22;48483;44.640;7.494;2023-09-19T08:10:10;19.80;99.90
39957;DHT22;48483;44.640;7.494;2023-09-19T08:12:48;19.90;99.90
39957;DHT22;48483;44.640;7.494;2023-09-19T08:15:15;19.90;99.90
39957;DHT22;48483;44.640;7.494;2023-09-19T08:17:42;19.90;99.90
39957;DHT22;48483;44.640;7.494;2023-09-19T08:20:10;19.90;99.90
39957;DHT22;48483;44.640;7.494;2023-09-19T08:22:47;20.00;99.90
39957;DHT22;48483;44.640;7.494;2023-09-19T08:25:15;20.10;99.90
39957;DHT22;48483;44.640;7.494;2023-09-19T08:27:44;20.20;99.90
39957;DHT22;48483;44.640;7.494;2023-09-19T08:30:14;20.20;99.90
39957;DHT22;48483;44.640;7.494;2023-09-19T08:32:41;20.10;99.90
39957;DHT22;48483;44.640;7.494;2023-09-19T08:35:12;20.10;99.90
39957;DHT22;48483;44.640;7.494;2023-09-19T08:37:39;20.30;99.90
39957;DHT22;48483;44.640;7.494;2023-09-19T08:40:09;20.30;99.90
39957;DHT22;48483;44.640;7.494;2023-09-19T08:42:48;20.30;99.90
39957;DHT22;48483;44.640;7.494;2023-09-19T08:45:16;20.40;99.90
39957;DHT22;48483;44.640;7.494;2023-09-19T08:47:46;20.50;99.90
39957;DHT22;48483;44.640;7.494;2023-09-19T08:50:19;20.60;99.90
39957;DHT22;48483;44.640;7.494;2023-09-19T08:52:51;20.70;99.90
39957;DHT22;48483;44.640;7.494;2023-09-19T08:55:26;20.80;99.90
39957;DHT22;48483;44.640;7.494;2023-09-19T08:58:00;20.80;99.90
39957;DHT22;48483;44.640;7.494;2023-09-19T09:00:27;20.80;99.90
39957;DHT22;48483;44.640;7.494;2023-09-19T09:02:55;21.00;99.90
39957;DHT22;48483;44.640;7.494;2023-09-19T09:05:25;21.00;99.90
39957;DHT22;48483;44.640;7.494;2023-09-19T09:07:54;20.90;99.90
39957;DHT22;48483;44.640;7.494;2023-09-19T09:10:24;21.10;99.90
39957;DHT22;48483;44.640;7.494;2023-09-19T09:12:52;21.20;99.90
39957;DHT22;48483;44.640;7.494;2023-09-19T09:15:22;21.30;99.90
39957;DHT22;48483;44.640;7.494;2023-09-19T09:17:50;21.40;99.90
39957;DHT22;48483;44.640;7.494;2023-09-19T09:20:17;21.40;99.90
39957;DHT22;48483;44.640;7.494;2023-09-19T09:22:51;21.50;99.90
39957;DHT22;48483;44.640;7.494;2023-09-19T09:25:24;21.50;99.90
39957;DHT22;48483;44.640;7.494;2023-09-19T09:28:10;21.50;99.90
39957;DHT22;48483;44.640;7.494;2023-09-19T09:30:37;21.50;99.90
39957;DHT22;48483;44.640;7.494;2023-09-19T09:33:08;21.60;99.90
39957;DHT22;48483;44.640;7.494;2023-09-19T09:35:37;21.60;99.90
39957;DHT22;48483;44.640;7.494;2023-09-19T09:38:13;21.60;99.90
39957;DHT22;48483;44.640;7.494;2023-09-19T09:40:48;21.60;99.90
39957;DHT22;48483;44.640;7.494;2023-09-19T09:43:29;21.60;99.90
39957;DHT22;48483;44.640;7.494;2023-09-19T09:46:11;21.60;99.90
39957;DHT22;48483;44.640;7.494;2023-09-19T09:48:56;21.60;99.90
39957;DHT22;48483;44.640;7.494;2023-09-19T09:51:45;21.70;99.90
39957;DHT22;48483;44.640;7.494;2023-09-19T09:54:24;21.70;99.90
39957;DHT22;48483;44.640;7.494;2023-09-19T09:56:59;21.70;99.90
39957;DHT22;48483;44.640;7.494;2023-09-19T09:59:44;21.90;99.90
39957;DHT22;48483;44.640;7.494;2023-09-19T10:02:14;22.00;99.90
39957;DHT22;48483;44.640;7.494;2023-09-19T10:04:46;22.00;99.90
39957;DHT22;48483;44.640;7.494;2023-09-19T10:07:36;22.00;99.90
39957;DHT22;48483;44.640;7.494;2023-09-19T10:10:09;22.00;99.90
39957;DHT22;48483;44.640;7.494;2023-09-19T10:12:49;22.00;99.90
39957;DHT22;48483;44.640;7.494;2023-09-19T10:15:18;22.00;99.90
39957;DHT22;48483;44.640;7.494;2023-09-19T10:17:52;22.10;99.90
39957;DHT22;48483;44.640;7.494;2023-09-19T10:20:23;22.10;99.90
39957;DHT22;48483;44.640;7.494;2023-09-19T10:23:06;22.20;99.90
39957;DHT22;48483;44.640;7.494;2023-09-19T10:25:39;22.30;99.90
39957;DHT22;48483;44.640;7.494;2023-09-19T10:28:15;22.30;99.90
39957;DHT22;48483;44.640;7.494;2023-09-19T10:30:43;22.40;99.90
39957;DHT22;48483;44.640;7.494;2023-09-19T10:33:12;22.50;99.90
39957;DHT22;48483;44.640;7.494;2023-09-19T10:35:43;22.50;99.90
39957;DHT22;48483;44.640;7.494;2023-09-19T10:38:11;22.60;99.90
39957;DHT22;48483;44.640;7.494;2023-09-19T10:40:39;22.60;99.90
39957;DHT22;48483;44.640;7.494;2023-09-19T10:43:16;22.70;99.90
39957;DHT22;48483;44.640;7.494;2023-09-19T10:45:48;22.70;99.90
39957;DHT22;48483;44.640;7.494;2023-09-19T10:48:22;22.80;99.90
39957;DHT22;48483;44.640;7.494;2023-09-19T10:50:57;22.70;99.90
39957;DHT22;48483;44.640;7.494;2023-09-19T10:53:27;22.80;99.90
39957;DHT22;48483;44.640;7.494;2023-09-19T10:55:57;22.90;99.90
39957;DHT22;48483;44.640;7.494;2023-09-19T10:58:28;23.00;99.90
39957;DHT22;48483;44.640;7.494;2023-09-19T11:00:57;23.00;99.90
39957;DHT22;48483;44.640;7.494;2023-09-19T11:03:31;23.00;99.90
39957;DHT22;48483;44.640;7.494;2023-09-19T11:06:04;23.00;99.90
39957;DHT22;48483;44.640;7.494;2023-09-19T11:08:34;23.00;99.90
39957;DHT22;48483;44.640;7.494;2023-09-19T11:11:45;23.10;99.90
39957;DHT22;48483;44.640;7.494;2023-09-19T11:14:38;23.00;99.90
39957;DHT22;48483;44.640;7.494;2023-09-19T11:17:30;23.00;99.90
39957;DHT22;48483;44.640;7.494;2023-09-19T11:20:23;23.10;99.90
39957;DHT22;48483;44.640;7.494;2023-09-19T11:23:21;23.30;99.90
39957;DHT22;48483;44.640;7.494;2023-09-19T11:25:49;23.40;99.90
39957;DHT22;48483;44.640;7.494;2023-09-19T11:28:28;23.50;99.90
39957;DHT22;48483;44.640;7.494;2023-09-19T11:30:58;23.50;99.90
39957;DHT22;48483;44.640;7.494;2023-09-19T11:33:27;23.60;99.90
39957;DHT22;48483;44.640;7.494;2023-09-19T11:36:04;23.50;99.90
39957;DHT22;48483;44.640;7.494;2023-09-19T11:38:59;23.50;99.90
39957;DHT22;48483;44.640;7.494;2023-09-19T11:41:39;23.60;99.90
39957;DHT22;48483;44.640;7.494;2023-09-19T11:44:34;23.60;99.90
39957;DHT22;48483;44.640;7.494;2023-09-19T11:47:02;23.60;99.90
39957;DHT22;48483;44.640;7.494;2023-09-19T11:49:31;23.70;99.90
39957;DHT22;48483;44.640;7.494;2023-09-19T11:52:00;23.70;99.90
39957;DHT22;48483;44.640;7.494;2023-09-19T11:54:31;23.70;99.90
39957;DHT22;48483;44.640;7.494;2023-09-19T11:57:00;23.80;99.90
39957;DHT22;48483;44.640;7.494;2023-09-19T11:59:28;23.80;99.90
39957;DHT22;48483;44.640;7.494;2023-09-19T12:02:03;23.80;99.90
39957;DHT22;48483;44.640;7.494;2023-09-19T12:04:35;23.90;99.90
39957;DHT22;48483;44.640;7.494;2023-09-19T12:07:07;24.00;99.90
39957;DHT22;48483;44.640;7.494;2023-09-19T12:09:43;24.00;99.90
39957;DHT22;48483;44.640;7.494;2023-09-19T12:12:11;24.00;99.90
39957;DHT22;48483;44.640;7.494;2023-09-19T12:14:48;24.00;99.90
39957;DHT22;48483;44.640;7.494;2023-09-19T12:17:16;24.10;99.90
39957;DHT22;48483;44.640;7.494;2023-09-19T12:19:50;24.20;99.90
39957;DHT22;48483;44.640;7.494;2023-09-19T12:22:18;24.10;99.90
39957;DHT22;48483;44.640;7.494;2023-09-19T12:24:47;24.10;99.90
39957;DHT22;48483;44.640;7.494;2023-09-19T12:27:15;24.10;99.90
39957;DHT22;48483;44.640;7.494;2023-09-19T12:29:43;24.10;99.90
39957;DHT22;48483;44.640;7.494;2023-09-19T12:32:11;24.20;99.90
39957;DHT22;48483;44.640;7.494;2023-09-19T12:34:39;24.20;99.90
39957;DHT22;48483;44.640;7.494;2023-09-19T12:37:10;24.20;99.90
39957;DHT22;48483;44.640;7.494;2023-09-19T12:39:43;24.10;99.90
39957;DHT22;48483;44.640;7.494;2023-09-19T12:42:15;24.20;99.90
39957;DHT22;48483;44.640;7.494;2023-09-19T12:44:44;24.10;99.90
39957;DHT22;48483;44.640;7.494;2023-09-19T12:47:12;24.20;99.90
39957;DHT22;48483;44.640;7.494;2023-09-19T12:50:15;24.30;99.90
39957;DHT22;48483;44.640;7.494;2023-09-19T12:52:56;24.30;99.90
39957;DHT22;48483;44.640;7.494;2023-09-19T12:55:28;24.30;99.90
39957;DHT22;48483;44.640;7.494;2023-09-19T12:57:57;24.30;99.90
39957;DHT22;48483;44.640;7.494;2023-09-19T13:00:32;24.30;99.90
39957;DHT22;48483;44.640;7.494;2023-09-19T13:03:15;24.30;99.90
39957;DHT22;48483;44.640;7.494;2023-09-19T13:06:03;24.30;99.90
39957;DHT22;48483;44.640;7.494;2023-09-19T13:08:31;24.30;99.90
39957;DHT22;48483;44.640;7.494;2023-09-19T13:11:06;24.30;99.90
39957;DHT22;48483;44.640;7.494;2023-09-19T13:13:37;24.20;99.90
39957;DHT22;48483;44.640;7.494;2023-09-19T13:16:04;24.20;99.90
39957;DHT22;48483;44.640;7.494;2023-09-19T13:18:48;24.30;99.90
39957;DHT22;48483;44.640;7.494;2023-09-19T13:21:29;24.30;99.90
39957;DHT22;48483;44.640;7.494;2023-09-19T13:24:20;24.30;99.50
39957;DHT22;48483;44.640;7.494;2023-09-19T13:26:47;24.30;99.40
39957;DHT22;48483;44.640;7.494;2023-09-19T13:29:14;24.30;99.90
39957;DHT22;48483;44.640;7.494;2023-09-19T13:31:46;24.40;99.90
39957;DHT22;48483;44.640;7.494;2023-09-19T13:34:13;24.40;99.90
39957;DHT22;48483;44.640;7.494;2023-09-19T13:36:43;24.40;99.90
39957;DHT22;48483;44.640;7.494;2023-09-19T13:39:10;24.40;99.90
39957;DHT22;48483;44.640;7.494;2023-09-19T13:41:39;24.40;99.90
39957;DHT22;48483;44.640;7.494;2023-09-19T13:44:06;24.40;99.90
39957;DHT22;48483;44.640;7.494;2023-09-19T13:46:33;24.40;99.90
39957;DHT22;48483;44.640;7.494;2023-09-19T13:49:02;24.40;99.30
39957;DHT22;48483;44.640;7.494;2023-09-19T13:51:30;24.40;99.50
39957;DHT22;48483;44.640;7.494;2023-09-19T13:53:59;24.40;99.00
39957;DHT22;48483;44.640;7.494;2023-09-19T13:56:28;24.40;98.90
39957;DHT22;48483;44.640;7.494;2023-09-19T13:58:56;24.40;99.30
39957;DHT22;48483;44.640;7.494;2023-09-19T14:01:23;24.40;99.20
39957;DHT22;48483;44.640;7.494;2023-09-19T14:03:50;24.40;98.90
39957;DHT22;48483;44.640;7.494;2023-09-19T14:06:17;24.40;98.10
39957;DHT22;48483;44.640;7.494;2023-09-19T14:08:44;24.40;98.90
39957;DHT22;48483;44.640;7.494;2023-09-19T14:11:17;24.40;99.10
39957;DHT22;48483;44.640;7.494;2023-09-19T14:13:44;24.40;99.60
39957;DHT22;48483;44.640;7.494;2023-09-19T14:16:13;24.40;99.90
39957;DHT22;48483;44.640;7.494;2023-09-19T14:18:40;24.40;99.80
39957;DHT22;48483;44.640;7.494;2023-09-19T14:21:07;24.50;99.50
39957;DHT22;48483;44.640;7.494;2023-09-19T14:23:38;24.50;99.70
39957;DHT22;48483;44.640;7.494;2023-09-19T14:26:05;24.50;99.90
39957;DHT22;48483;44.640;7.494;2023-09-19T14:28:33;24.50;99.90
39957;DHT22;48483;44.640;7.494;2023-09-19T14:31:04;24.50;99.90
39957;DHT22;48483;44.640;7.494;2023-09-19T14:33:32;24.60;99.90
39957;DHT22;48483;44.640;7.494;2023-09-19T14:36:02;24.60;99.90
39957;DHT22;48483;44.640;7.494;2023-09-19T14:38:29;24.60;99.90
39957;DHT22;48483;44.640;7.494;2023-09-19T14:41:00;24.50;99.90
39957;DHT22;48483;44.640;7.494;2023-09-19T14:43:27;24.50;99.90
39957;DHT22;48483;44.640;7.494;2023-09-19T14:45:57;24.40;99.90
39957;DHT22;48483;44.640;7.494;2023-09-19T14:48:28;24.40;99.90
39957;DHT22;48483;44.640;7.494;2023-09-19T14:50:55;24.40;99.90
39957;DHT22;48483;44.640;7.494;2023-09-19T14:53:28;24.50;99.90
39957;DHT22;48483;44.640;7.494;2023-09-19T14:55:55;24.60;99.90
39957;DHT22;48483;44.640;7.494;2023-09-19T14:58:22;24.60;99.90
39957;DHT22;48483;44.640;7.494;2023-09-19T15:00:49;24.60;99.90
39957;DHT22;48483;44.640;7.494;2023-09-19T15:03:19;24.50;99.90
39957;DHT22;48483;44.640;7.494;2023-09-19T15:05:45;24.50;99.90
39957;DHT22;48483;44.640;7.494;2023-09-19T15:08:12;24.50;99.90
39957;DHT22;48483;44.640;7.494;2023-09-19T15:10:39;24.50;99.90
39957;DHT22;48483;44.640;7.494;2023-09-19T15:13:05;24.60;99.90
39957;DHT22;48483;44.640;7.494;2023-09-19T15:15:32;24.50;99.90
39957;DHT22;48483;44.640;7.494;2023-09-19T15:17:59;24.60;99.40
39957;DHT22;48483;44.640;7.494;2023-09-19T15:20:27;24.60;99.60
39957;DHT22;48483;44.640;7.494;2023-09-19T15:22:54;24.70;99.80
39957;DHT22;48483;44.640;7.494;2023-09-19T15:25:20;24.60;99.90
39957;DHT22;48483;44.640;7.494;2023-09-19T15:27:47;24.70;99.70
39957;DHT22;48483;44.640;7.494;2023-09-19T15:30:15;24.60;99.70
39957;DHT22;48483;44.640;7.494;2023-09-19T15:32:42;24.60;99.60
39957;DHT22;48483;44.640;7.494;2023-09-19T15:35:08;24.60;99.40
39957;DHT22;48483;44.640;7.494;2023-09-19T15:37:39;24.60;99.80
39957;DHT22;48483;44.640;7.494;2023-09-19T15:40:07;24.60;99.90
39957;DHT22;48483;44.640;7.494;2023-09-19T15:42:37;24.60;99.70
39957;DHT22;48483;44.640;7.494;2023-09-19T15:45:04;24.60;99.70
39957;DHT22;48483;44.640;7.494;2023-09-19T15:47:31;24.60;98.20
39957;DHT22;48483;44.640;7.494;2023-09-19T15:49:58;24.60;98.20
39957;DHT22;48483;44.640;7.494;2023-09-19T15:52:25;24.50;98.40